sensor_id;sensor_type;location;lat;lon;timestamp;temperature;humidity
20815;DHT22;10568;48.176;16.316;2023-04-15T00:00:09;4.20;99.90
20815;DHT22;10568;48.176;16.316;2023-04-15T00:02:35;4.10;99.90
20815;DHT22;10568;48.176;16.316;2023-04-15T00:05:01;4.20;99.90
20815;DHT22;10568;48.176;16.316;2023-04-15T00:07:27;4.20;99.90
20815;DHT22;10568;48.176;16.316;2023-04-15T00:09:54;4.20;99.90
20815;DHT22;10568;48.176;16.316;2023-04-15T00:12:26;4.20;99.90
20815;DHT22;10568;48.176;16.316;2023-04-15T00:14:52;4.20;99.90
20815;DHT22;10568;48.176;16.316;2023-04-15T00:17:17;4.20;99.90
20815;DHT22;10568;48.176;16.316;2023-04-15T00:19:43;4.20;99.90
20815;DHT22;10568;48.176;16.316;2023-04-15T00:22:10;4.10;99.90
20815;DHT22;10568;48.176;16.316;2023-04-15T00:24:36;4.20;99.90
20815;DHT22;10568;48.176;16.316;2023-04-15T00:27:02;4.20;99.90
20815;DHT22;10568;48.176;16.316;2023-04-15T00:29:29;4.20;99.90
20815;DHT22;10568;48.176;16.316;2023-04-15T00:31:55;4.20;99.90
20815;DHT22;10568;48.176;16.316;2023-04-15T00:34:21;4.20;99.90
20815;DHT22;10568;48.176;16.316;2023-04-15T00:36:47;4.20;99.90
20815;DHT22;10568;48.176;16.316;2023-04-15T00:39:13;4.10;99.90
20815;DHT22;10568;48.176;16.316;2023-04-15T00:41:40;4.10;99.90
20815;DHT22;10568;48.176;16.316;2023-04-15T00:44:06;4.10;99.90
20815;DHT22;10568;48.176;16.316;2023-04-15T00:46:35;4.00;99.90
20815;DHT22;10568;48.176;16.316;2023-04-15T00:49:03;4.00;99.90
20815;DHT22;10568;48.176;16.316;2023-04-15T00:51:29;4.00;99.90
20815;DHT22;10568;48.176;16.316;2023-04-15T00:53:58;4.00;99.90
20815;DHT22;10568;48.176;16.316;2023-04-15T00:56:24;4.00;99.90
20815;DHT22;10568;48.176;16.316;2023-04-15T00:58:51;4.00;99.90
20815;DHT22;10568;48.176;16.316;2023-04-15T01:04:40;4.00;99.90
20815;DHT22;10568;48.176;16.316;2023-04-15T01:07:05;4.00;99.90
20815;DHT22;10568;48.176;16.316;2023-04-15T01:09:31;4.00;99.90
20815;DHT22;10568;48.176;16.316;2023-04-15T01:11:58;4.10;99.90
20815;DHT22;10568;48.176;16.316;2023-04-15T01:14:24;4.00;99.90
20815;DHT22;10568;48.176;16.316;2023-04-15T01:16:51;4.10;99.90
20815;DHT22;10568;48.176;16.316;2023-04-15T01:19:17;4.10;99.90
20815;DHT22;10568;48.176;16.316;2023-04-15T01:21:43;4.10;99.90
20815;DHT22;10568;48.176;16.316;2023-04-15T01:24:10;4.10;99.90
20815;DHT22;10568;48.176;16.316;2023-04-15T01:26:39;4.10;99.90
20815;DHT22;10568;48.176;16.316;2023-04-15T01:29:06;4.10;99.90
20815;DHT22;10568;48.176;16.316;2023-04-15T01:31:33;4.10;99.90
20815;DHT22;10568;48.176;16.316;2023-04-15T01:33:58;4.10;99.90
20815;DHT22;10568;48.176;16.316;2023-04-15T01:36:58;4.10;99.90
20815;DHT22;10568;48.176;16.316;2023-04-15T01:39:24;4.10;99.90
20815;DHT22;10568;48.176;16.316;2023-04-15T01:41:49;4.10;99.90
20815;DHT22;10568;48.176;16.316;2023-04-15T01:44:15;4.10;99.90
20815;DHT22;10568;48.176;16.316;2023-04-15T01:46:41;4.10;99.90
20815;DHT22;10568;48.176;16.316;2023-04-15T01:49:07;4.10;99.90
20815;DHT22;10568;48.176;16.316;2023-04-15T01:51:32;4.20;99.90
20815;DHT22;10568;48.176;16.316;2023-04-15T01:53:58;4.20;99.90
20815;DHT22;10568;48.176;16.316;2023-04-15T01:56:24;4.20;99.90
20815;DHT22;10568;48.176;16.316;2023-04-15T01:58:51;4.20;99.90
20815;DHT22;10568;48.176;16.316;2023-04-15T02:01:17;4.20;99.90
20815;DHT22;10568;48.176;16.316;2023-04-15T02:03:44;4.20;99.90
20815;DHT22;10568;48.176;16.316;2023-04-15T02:06:11;4.30;99.90
20815;DHT22;10568;48.176;16.316;2023-04-15T02:08:36;4.20;99.90
20815;DHT22;10568;48.176;16.316;2023-04-15T02:11:02;4.30;99.90
20815;DHT22;10568;48.176;16.316;2023-04-15T02:13:28;4.30;99.90
20815;DHT22;10568;48.176;16.316;2023-04-15T02:15:54;4.30;99.90
20815;DHT22;10568;48.176;16.316;2023-04-15T02:18:20;4.30;99.90
20815;DHT22;10568;48.176;16.316;2023-04-15T02:20:46;4.30;99.90
20815;DHT22;10568;48.176;16.316;2023-04-15T02:23:12;4.40;99.90
20815;DHT22;10568;48.176;16.316;2023-04-15T02:25:38;4.40;99.90
20815;DHT22;10568;48.176;16.316;2023-04-15T02:28:07;4.40;99.90
20815;DHT22;10568;48.176;16.316;2023-04-15T02:30:33;4.40;99.90
20815;DHT22;10568;48.176;16.316;2023-04-15T02:33:03;4.40;99.90
20815;DHT22;10568;48.176;16.316;2023-04-15T02:35:29;4.40;99.90
20815;DHT22;10568;48.176;16.316;2023-04-15T02:37:54;4.40;99.90
20815;DHT22;10568;48.176;16.316;2023-04-15T02:40:20;4.40;99.90
20815;DHT22;10568;48.176;16.316;2023-04-15T02:42:46;4.40;99.90
20815;DHT22;10568;48.176;16.316;2023-04-15T02:45:12;4.40;99.90
20815;DHT22;10568;48.176;16.316;2023-04-15T02:47:38;4.40;99.90
20815;DHT22;10568;48.176;16.316;2023-04-15T02:50:10;4.40;99.90
20815;DHT22;10568;48.176;16.316;2023-04-15T02:52:40;4.40;99.90
20815;DHT22;10568;48.176;16.316;2023-04-15T02:55:07;4.50;99.90
20815;DHT22;10568;48.176;16.316;2023-04-15T02:57:33;4.50;99.90
20815;DHT22;10568;48.176;16.316;2023-04-15T03:00:02;4.50;99.90
20815;DHT22;10568;48.176;16.316;2023-04-15T03:02:33;4.50;99.90
20815;DHT22;10568;48.176;16.316;2023-04-15T03:05:00;4.50;99.90
20815;DHT22;10568;48.176;16.316;2023-04-15T03:07:26;4.50;99.90
20815;DHT22;10568;48.176;16.316;2023-04-15T03:09:51;4.50;99.90
20815;DHT22;10568;48.176;16.316;2023-04-15T03:12:17;4.50;99.90
20815;DHT22;10568;48.176;16.316;2023-04-15T03:14:43;4.50;99.90
20815;DHT22;10568;48.176;16.316;2023-04-15T03:17:09;4.50;99.90
20815;DHT22;10568;48.176;16.316;2023-04-15T03:19:34;4.50;99.90
20815;DHT22;10568;48.176;16.316;2023-04-15T03:22:00;4.50;99.90
20815;DHT22;10568;48.176;16.316;2023-04-15T03:24:26;4.50;99.90
20815;DHT22;10568;48.176;16.316;2023-04-15T03:26:54;4.50;99.90
20815;DHT22;10568;48.176;16.316;2023-04-15T03:29:20;4.50;99.90
20815;DHT22;10568;48.176;16.316;2023-04-15T03:31:46;4.60;99.90
20815;DHT22;10568;48.176;16.316;2023-04-15T03:34:12;4.60;99.90
20815;DHT22;10568;48.176;16.316;2023-04-15T03:36:37;4.60;99.90
20815;DHT22;10568;48.176;16.316;2023-04-15T03:39:03;4.60;99.90
20815;DHT22;10568;48.176;16.316;2023-04-15T03:41:31;4.60;99.90
20815;DHT22;10568;48.176;16.316;2023-04-15T03:43:58;4.60;99.90
20815;DHT22;10568;48.176;16.316;2023-04-15T03:46:24;4.60;99.90
20815;DHT22;10568;48.176;16.316;2023-04-15T03:48:50;4.60;99.90
20815;DHT22;10568;48.176;16.316;2023-04-15T03:51:16;4.60;99.90
20815;DHT22;10568;48.176;16.316;2023-04-15T03:53:41;4.50;99.90
20815;DHT22;10568;48.176;16.316;2023-04-15T03:56:07;4.60;99.90
20815;DHT22;10568;48.176;16.316;2023-04-15T03:58:33;4.60;99.90
20815;DHT22;10568;48.176;16.316;2023-04-15T04:00:58;4.60;99.90
20815;DHT22;10568;48.176;16.316;2023-04-15T04:03:24;4.70;99.90
20815;DHT22;10568;48.176;16.316;2023-04-15T04:05:50;4.70;99.90
20815;DHT22;10568;48.176;16.316;2023-04-15T04:08:16;4.70;99.90
20815;DHT22;10568;48.176;16.316;2023-04-15T04:10:43;4.70;99.90
20815;DHT22;10568;48.176;16.316;2023-04-15T04:13:09;4.70;99.90
20815;DHT22;10568;48.176;16.316;2023-04-15T04:15:35;4.60;99.90
20815;DHT22;10568;48.176;16.316;2023-04-15T04:18:01;4.70;99.90
20815;DHT22;10568;48.176;16.316;2023-04-15T04:20:27;4.70;99.90
20815;DHT22;10568;48.176;16.316;2023-04-15T04:22:52;4.70;99.90
20815;DHT22;10568;48.176;16.316;2023-04-15T04:25:18;4.80;99.90
20815;DHT22;10568;48.176;16.316;2023-04-15T04:27:44;4.80;99.90
20815;DHT22;10568;48.176;16.316;2023-04-15T04:30:10;4.80;99.90
20815;DHT22;10568;48.176;16.316;2023-04-15T04:32:36;4.80;99.90
20815;DHT22;10568;48.176;16.316;2023-04-15T04:35:03;4.80;99.90
20815;DHT22;10568;48.176;16.316;2023-04-15T04:37:29;4.80;99.90
20815;DHT22;10568;48.176;16.316;2023-04-15T04:39:55;4.80;99.90
20815;DHT22;10568;48.176;16.316;2023-04-15T04:42:21;4.90;99.90
20815;DHT22;10568;48.176;16.316;2023-04-15T04:44:47;4.90;99.90
20815;DHT22;10568;48.176;16.316;2023-04-15T04:47:13;4.90;99.90
20815;DHT22;10568;48.176;16.316;2023-04-15T04:49:38;4.90;99.90
20815;DHT22;10568;48.176;16.316;2023-04-15T04:52:05;5.00;99.90
20815;DHT22;10568;48.176;16.316;2023-04-15T04:54:31;5.00;99.90
20815;DHT22;10568;48.176;16.316;2023-04-15T04:56:57;5.00;99.90
20815;DHT22;10568;48.176;16.316;2023-04-15T04:59:23;5.00;99.90
20815;DHT22;10568;48.176;16.316;2023-04-15T05:01:49;5.10;99.90
20815;DHT22;10568;48.176;16.316;2023-04-15T05:04:15;5.10;99.90
20815;DHT22;10568;48.176;16.316;2023-04-15T05:06:41;5.10;99.90
20815;DHT22;10568;48.176;16.316;2023-04-15T05:09:07;5.20;99.90
20815;DHT22;10568;48.176;16.316;2023-04-15T05:11:33;5.20;99.90
20815;DHT22;10568;48.176;16.316;2023-04-15T05:13:58;5.20;99.90
20815;DHT22;10568;48.176;16.316;2023-04-15T05:16:26;5.30;99.90
20815;DHT22;10568;48.176;16.316;2023-04-15T05:18:52;5.30;99.90
20815;DHT22;10568;48.176;16.316;2023-04-15T05:21:18;5.30;99.90
20815;DHT22;10568;48.176;16.316;2023-04-15T05:23:44;5.30;99.90
20815;DHT22;10568;48.176;16.316;2023-04-15T05:26:10;5.40;99.90
20815;DHT22;10568;48.176;16.316;2023-04-15T05:28:36;5.40;99.90
20815;DHT22;10568;48.176;16.316;2023-04-15T05:31:02;5.50;99.90
20815;DHT22;10568;48.176;16.316;2023-04-15T05:33:28;5.50;99.90
20815;DHT22;10568;48.176;16.316;2023-04-15T05:35:54;5.50;99.90
20815;DHT22;10568;48.176;16.316;2023-04-15T05:38:20;5.50;99.90
20815;DHT22;10568;48.176;16.316;2023-04-15T05:40:45;5.60;99.90
20815;DHT22;10568;48.176;16.316;2023-04-15T05:43:11;5.60;99.90
20815;DHT22;10568;48.176;16.316;2023-04-15T05:45:37;5.70;99.90
20815;DHT22;10568;48.176;16.316;2023-04-15T05:48:03;5.70;99.90
20815;DHT22;10568;48.176;16.316;2023-04-15T05:50:28;5.70;99.90
20815;DHT22;10568;48.176;16.316;2023-04-15T05:52:54;5.70;99.90
20815;DHT22;10568;48.176;16.316;2023-04-15T05:55:20;5.80;99.90
20815;DHT22;10568;48.176;16.316;2023-04-15T05:57:46;5.80;99.90
20815;DHT22;10568;48.176;16.316;2023-04-15T06:00:12;5.80;99.90
20815;DHT22;10568;48.176;16.316;2023-04-15T06:02:38;5.90;99.90
20815;DHT22;10568;48.176;16.316;2023-04-15T06:05:04;5.90;99.90
20815;DHT22;10568;48.176;16.316;2023-04-15T06:07:35;6.00;99.90
20815;DHT22;10568;48.176;16.316;2023-04-15T06:10:02;6.00;99.90
20815;DHT22;10568;48.176;16.316;2023-04-15T06:12:28;6.10;99.90
20815;DHT22;10568;48.176;16.316;2023-04-15T06:14:54;6.20;99.90
20815;DHT22;10568;48.176;16.316;2023-04-15T06:17:20;6.20;99.90
20815;DHT22;10568;48.176;16.316;2023-04-15T06:19:45;6.30;99.90
20815;DHT22;10568;48.176;16.316;2023-04-15T06:22:11;6.40;99.90
20815;DHT22;10568;48.176;16.316;2023-04-15T06:24:37;6.50;99.90
20815;DHT22;10568;48.176;16.316;2023-04-15T06:27:03;6.60;99.90
20815;DHT22;10568;48.176;16.316;2023-04-15T06:29:28;6.60;99.90
20815;DHT22;10568;48.176;16.316;2023-04-15T06:31:54;6.70;99.90
20815;DHT22;10568;48.176;16.316;2023-04-15T06:34:21;6.70;99.90
20815;DHT22;10568;48.176;16.316;2023-04-15T06:36:46;6.80;99.90
20815;DHT22;10568;48.176;16.316;2023-04-15T06:39:12;6.80;99.90
20815;DHT22;10568;48.176;16.316;2023-04-15T06:41:38;6.90;99.90
20815;DHT22;10568;48.176;16.316;2023-04-15T06:44:04;6.90;99.90
20815;DHT22;10568;48.176;16.316;2023-04-15T06:46:30;6.90;99.90
20815;DHT22;10568;48.176;16.316;2023-04-15T06:48:55;6.90;99.90
20815;DHT22;10568;48.176;16.316;2023-04-15T06:51:21;7.10;99.90
20815;DHT22;10568;48.176;16.316;2023-04-15T06:53:48;7.10;99.90
20815;DHT22;10568;48.176;16.316;2023-04-15T06:56:14;7.10;99.90
20815;DHT22;10568;48.176;16.316;2023-04-15T06:58:39;7.20;99.90
20815;DHT22;10568;48.176;16.316;2023-04-15T07:01:05;7.00;99.90
20815;DHT22;10568;48.176;16.316;2023-04-15T07:03:31;7.00;99.90
20815;DHT22;10568;48.176;16.316;2023-04-15T07:05:57;7.20;99.90
20815;DHT22;10568;48.176;16.316;2023-04-15T07:08:23;7.30;99.90
20815;DHT22;10568;48.176;16.316;2023-04-15T07:10:48;7.40;99.90
20815;DHT22;10568;48.176;16.316;2023-04-15T07:13:14;7.40;99.90
20815;DHT22;10568;48.176;16.316;2023-04-15T07:15:40;7.50;99.90
20815;DHT22;10568;48.176;16.316;2023-04-15T07:18:06;7.60;99.90
20815;DHT22;10568;48.176;16.316;2023-04-15T07:20:31;7.60;99.90
20815;DHT22;10568;48.176;16.316;2023-04-15T07:22:57;7.50;99.90
20815;DHT22;10568;48.176;16.316;2023-04-15T07:25:23;7.50;99.90
20815;DHT22;10568;48.176;16.316;2023-04-15T07:27:49;7.50;99.90
20815;DHT22;10568;48.176;16.316;2023-04-15T07:30:15;7.50;99.90
20815;DHT22;10568;48.176;16.316;2023-04-15T07:32:41;7.60;99.90
20815;DHT22;10568;48.176;16.316;2023-04-15T07:35:07;7.50;99.90
20815;DHT22;10568;48.176;16.316;2023-04-15T07:37:34;7.40;99.90
20815;DHT22;10568;48.176;16.316;2023-04-15T07:40:00;7.50;99.90
20815;DHT22;10568;48.176;16.316;2023-04-15T07:42:26;7.50;99.90
20815;DHT22;10568;48.176;16.316;2023-04-15T07:44:52;7.60;99.90
20815;DHT22;10568;48.176;16.316;2023-04-15T07:47:17;7.90;99.90
20815;DHT22;10568;48.176;16.316;2023-04-15T07:49:43;7.90;99.90
20815;DHT22;10568;48.176;16.316;2023-04-15T07:52:09;8.00;99.90
20815;DHT22;10568;48.176;16.316;2023-04-15T07:54:35;8.10;99.90
20815;DHT22;10568;48.176;16.316;2023-04-15T07:57:01;8.20;99.90
20815;DHT22;10568;48.176;16.316;2023-04-15T07:59:28;8.40;99.90
20815;DHT22;10568;48.176;16.316;2023-04-15T08:01:55;8.40;99.90
20815;DHT22;10568;48.176;16.316;2023-04-15T08:04:21;8.50;99.90
20815;DHT22;10568;48.176;16.316;2023-04-15T08:06:47;8.60;99.90
20815;DHT22;10568;48.176;16.316;2023-04-15T08:09:14;8.80;99.90
20815;DHT22;10568;48.176;16.316;2023-04-15T08:11:40;8.90;99.90
20815;DHT22;10568;48.176;16.316;2023-04-15T08:14:06;9.00;99.90
20815;DHT22;10568;48.176;16.316;2023-04-15T08:16:32;8.90;99.90
20815;DHT22;10568;48.176;16.316;2023-04-15T08:18:58;8.80;99.90
20815;DHT22;10568;48.176;16.316;2023-04-15T08:21:23;8.90;99.90
20815;DHT22;10568;48.176;16.316;2023-04-15T08:23:51;8.90;99.90
20815;DHT22;10568;48.176;16.316;2023-04-15T08:26:17;8.90;99.90
20815;DHT22;10568;48.176;16.316;2023-04-15T08:28:44;8.90;99.90
20815;DHT22;10568;48.176;16.316;2023-04-15T08:31:12;8.90;99.90
20815;DHT22;10568;48.176;16.316;2023-04-15T08:33:39;8.90;99.90
20815;DHT22;10568;48.176;16.316;2023-04-15T08:36:05;8.80;99.90
20815;DHT22;10568;48.176;16.316;2023-04-15T08:38:32;8.70;99.90
20815;DHT22;10568;48.176;16.316;2023-04-15T08:41:03;8.70;99.90
20815;DHT22;10568;48.176;16.316;2023-04-15T08:43:33;8.80;99.90
20815;DHT22;10568;48.176;16.316;2023-04-15T08:46:00;8.80;99.90
20815;DHT22;10568;48.176;16.316;2023-04-15T08:48:32;8.70;99.90
20815;DHT22;10568;48.176;16.316;2023-04-15T08:50:57;8.50;99.90
20815;DHT22;10568;48.176;16.316;2023-04-15T08:53:24;8.70;99.90
20815;DHT22;10568;48.176;16.316;2023-04-15T08:55:51;8.70;99.90
20815;DHT22;10568;48.176;16.316;2023-04-15T08:58:18;8.70;99.90
20815;DHT22;10568;48.176;16.316;2023-04-15T09:00:44;8.70;99.90
20815;DHT22;10568;48.176;16.316;2023-04-15T09:03:10;8.70;99.90
20815;DHT22;10568;48.176;16.316;2023-04-15T09:05:37;8.70;99.90
20815;DHT22;10568;48.176;16.316;2023-04-15T09:08:03;8.70;99.90
20815;DHT22;10568;48.176;16.316;2023-04-15T09:10:31;8.70;99.90
20815;DHT22;10568;48.176;16.316;2023-04-15T09:12:57;8.80;99.90
20815;DHT22;10568;48.176;16.316;2023-04-15T09:15:26;8.80;99.90
20815;DHT22;10568;48.176;16.316;2023-04-15T09:17:52;8.80;99.90
20815;DHT22;10568;48.176;16.316;2023-04-15T09:20:17;8.90;99.90
20815;DHT22;10568;48.176;16.316;2023-04-15T09:22:45;8.90;99.90
20815;DHT22;10568;48.176;16.316;2023-04-15T09:30:15;9.20;99.90
20815;DHT22;10568;48.176;16.316;2023-04-15T09:32:50;9.20;99.90
20815;DHT22;10568;48.176;16.316;2023-04-15T09:35:17;9.20;99.90
20815;DHT22;10568;48.176;16.316;2023-04-15T09:37:43;9.30;99.90
20815;DHT22;10568;48.176;16.316;2023-04-15T09:40:09;9.30;99.90
20815;DHT22;10568;48.176;16.316;2023-04-15T09:42:35;9.40;99.90
20815;DHT22;10568;48.176;16.316;2023-04-15T09:45:09;9.30;99.90
20815;DHT22;10568;48.176;16.316;2023-04-15T09:47:36;9.30;99.90
20815;DHT22;10568;48.176;16.316;2023-04-15T09:50:01;9.30;99.90
20815;DHT22;10568;48.176;16.316;2023-04-15T09:52:28;9.40;99.90
20815;DHT22;10568;48.176;16.316;2023-04-15T09:54:56;9.40;99.90
20815;DHT22;10568;48.176;16.316;2023-04-15T09:57:23;9.20;99.90
20815;DHT22;10568;48.176;16.316;2023-04-15T09:59:50;9.30;99.90
20815;DHT22;10568;48.176;16.316;2023-04-15T10:02:17;9.30;99.90
20815;DHT22;10568;48.176;16.316;2023-04-15T10:04:44;9.40;99.90
20815;DHT22;10568;48.176;16.316;2023-04-15T10:07:14;9.30;99.90
20815;DHT22;10568;48.176;16.316;2023-04-15T10:09:40;9.30;99.90
20815;DHT22;10568;48.176;16.316;2023-04-15T10:12:10;9.40;99.90
20815;DHT22;10568;48.176;16.316;2023-04-15T10:14:37;9.20;99.90
20815;DHT22;10568;48.176;16.316;2023-04-15T10:17:06;9.20;99.90
20815;DHT22;10568;48.176;16.316;2023-04-15T10:19:36;9.20;99.90
20815;DHT22;10568;48.176;16.316;2023-04-15T10:22:02;9.10;99.90
20815;DHT22;10568;48.176;16.316;2023-04-15T10:24:30;9.10;99.90
20815;DHT22;10568;48.176;16.316;2023-04-15T10:26:57;9.00;99.90
20815;DHT22;10568;48.176;16.316;2023-04-15T10:29:26;9.10;99.90
20815;DHT22;10568;48.176;16.316;2023-04-15T10:31:56;9.10;99.90
20815;DHT22;10568;48.176;16.316;2023-04-15T10:34:23;9.10;99.90
20815;DHT22;10568;48.176;16.316;2023-04-15T10:36:50;9.10;99.90
20815;DHT22;10568;48.176;16.316;2023-04-15T10:42:20;9.20;99.90
20815;DHT22;10568;48.176;16.316;2023-04-15T10:44:50;9.00;99.90
20815;DHT22;10568;48.176;16.316;2023-04-15T10:47:18;9.00;99.90
20815;DHT22;10568;48.176;16.316;2023-04-15T10:49:45;9.00;99.90
20815;DHT22;10568;48.176;16.316;2023-04-15T10:52:12;9.00;99.90
20815;DHT22;10568;48.176;16.316;2023-04-15T10:54:38;9.10;99.90
20815;DHT22;10568;48.176;16.316;2023-04-15T10:59:31;8.90;99.90
20815;DHT22;10568;48.176;16.316;2023-04-15T11:02:03;8.80;99.90
20815;DHT22;10568;48.176;16.316;2023-04-15T11:04:55;8.90;99.90
20815;DHT22;10568;48.176;16.316;2023-04-15T11:10:01;8.80;99.90
20815;DHT22;10568;48.176;16.316;2023-04-15T11:12:34;9.00;99.90
20815;DHT22;10568;48.176;16.316;2023-04-15T11:15:28;9.10;99.90
20815;DHT22;10568;48.176;16.316;2023-04-15T11:17:59;9.20;99.90
20815;DHT22;10568;48.176;16.316;2023-04-15T11:20:33;9.20;99.90
20815;DHT22;10568;48.176;16.316;2023-04-15T11:22:59;9.30;99.90
20815;DHT22;10568;48.176;16.316;2023-04-15T11:25:27;9.30;99.90
20815;DHT22;10568;48.176;16.316;2023-04-15T11:27:54;9.50;99.90
20815;DHT22;10568;48.176;16.316;2023-04-15T11:30:22;9.60;99.90
20815;DHT22;10568;48.176;16.316;2023-04-15T11:32:53;9.60;99.90
20815;DHT22;10568;48.176;16.316;2023-04-15T11:35:20;9.60;99.90
20815;DHT22;10568;48.176;16.316;2023-04-15T11:37:48;9.50;99.90
20815;DHT22;10568;48.176;16.316;2023-04-15T11:40:16;9.50;99.90
20815;DHT22;10568;48.176;16.316;2023-04-15T11:42:44;9.60;99.90
20815;DHT22;10568;48.176;16.316;2023-04-15T11:45:13;9.60;99.90
20815;DHT22;10568;48.176;16.316;2023-04-15T11:47:41;9.80;99.90
20815;DHT22;10568;48.176;16.316;2023-04-15T11:52:54;10.00;99.90
20815;DHT22;10568;48.176;16.316;2023-04-15T11:55:22;10.00;99.90
20815;DHT22;10568;48.176;16.316;2023-04-15T12:00:58;10.10;99.90
20815;DHT22;10568;48.176;16.316;2023-04-15T12:03:42;10.20;99.90
20815;DHT22;10568;48.176;16.316;2023-04-15T12:06:21;10.20;99.90
20815;DHT22;10568;48.176;16.316;2023-04-15T12:14:03;10.10;99.90
20815;DHT22;10568;48.176;16.316;2023-04-15T12:16:31;10.10;99.90
20815;DHT22;10568;48.176;16.316;2023-04-15T12:18:59;10.20;99.90
20815;DHT22;10568;48.176;16.316;2023-04-15T12:21:27;10.10;99.90
20815;DHT22;10568;48.176;16.316;2023-04-15T12:23:55;10.00;99.90
20815;DHT22;10568;48.176;16.316;2023-04-15T12:26:26;10.00;99.90
20815;DHT22;10568;48.176;16.316;2023-04-15T12:29:14;10.00;99.90
20815;DHT22;10568;48.176;16.316;2023-04-15T12:34:33;9.80;99.90
20815;DHT22;10568;48.176;16.316;2023-04-15T12:37:01;9.90;99.90
20815;DHT22;10568;48.176;16.316;2023-04-15T12:39:30;9.90;99.90
20815;DHT22;10568;48.176;16.316;2023-04-15T12:41:57;10.00;99.90
20815;DHT22;10568;48.176;16.316;2023-04-15T12:44:24;9.90;99.90
20815;DHT22;10568;48.176;16.316;2023-04-15T12:46:51;10.00;99.90
20815;DHT22;10568;48.176;16.316;2023-04-15T12:49:20;10.20;99.90
20815;DHT22;10568;48.176;16.316;2023-04-15T12:51:51;10.10;99.90
20815;DHT22;10568;48.176;16.316;2023-04-15T12:54:17;10.20;99.90
20815;DHT22;10568;48.176;16.316;2023-04-15T12:56:45;10.20;99.90
20815;DHT22;10568;48.176;16.316;2023-04-15T12:59:11;10.40;99.90
20815;DHT22;10568;48.176;16.316;2023-04-15T13:01:38;10.40;99.90
20815;DHT22;10568;48.176;16.316;2023-04-15T13:04:04;10.70;99.90
20815;DHT22;10568;48.176;16.316;2023-04-15T13:06:30;10.80;99.90
20815;DHT22;10568;48.176;16.316;2023-04-15T13:09:00;10.80;99.90
20815;DHT22;10568;48.176;16.316;2023-04-15T13:11:27;10.80;99.90
20815;DHT22;10568;48.176;16.316;2023-04-15T13:13:55;10.80;99.90
20815;DHT22;10568;48.176;16.316;2023-04-15T13:16:22;11.20;99.90
20815;DHT22;10568;48.176;16.316;2023-04-15T13:18:48;11.50;99.90
20815;DHT22;10568;48.176;16.316;2023-04-15T13:21:14;11.80;99.90
20815;DHT22;10568;48.176;16.316;2023-04-15T13:23:43;12.10;99.90
20815;DHT22;10568;48.176;16.316;2023-04-15T13:26:08;12.40;99.90
20815;DHT22;10568;48.176;16.316;2023-04-15T13:28:34;12.70;99.90
20815;DHT22;10568;48.176;16.316;2023-04-15T13:31:00;13.20;99.90
20815;DHT22;10568;48.176;16.316;2023-04-15T13:33:26;13.40;99.90
20815;DHT22;10568;48.176;16.316;2023-04-15T13:35:52;13.30;99.90
20815;DHT22;10568;48.176;16.316;2023-04-15T13:38:18;13.00;99.90
20815;DHT22;10568;48.176;16.316;2023-04-15T13:40:44;12.80;99.90
20815;DHT22;10568;48.176;16.316;2023-04-15T13:43:10;12.40;99.90
20815;DHT22;10568;48.176;16.316;2023-04-15T13:45:36;12.30;99.90
20815;DHT22;10568;48.176;16.316;2023-04-15T13:48:02;12.00;99.90
20815;DHT22;10568;48.176;16.316;2023-04-15T13:50:28;11.90;99.90
20815;DHT22;10568;48.176;16.316;2023-04-15T13:52:54;12.00;99.90
20815;DHT22;10568;48.176;16.316;2023-04-15T13:55:20;12.10;99.90
20815;DHT22;10568;48.176;16.316;2023-04-15T13:57:45;12.00;99.90
20815;DHT22;10568;48.176;16.316;2023-04-15T14:00:12;11.60;99.90
20815;DHT22;10568;48.176;16.316;2023-04-15T14:02:39;11.60;99.90
20815;DHT22;10568;48.176;16.316;2023-04-15T14:05:06;11.60;99.90
20815;DHT22;10568;48.176;16.316;2023-04-15T14:07:32;11.60;99.90
20815;DHT22;10568;48.176;16.316;2023-04-15T14:09:59;11.50;99.90
20815;DHT22;10568;48.176;16.316;2023-04-15T14:12:25;11.60;99.90
20815;DHT22;10568;48.176;16.316;2023-04-15T14:14:51;11.20;99.90
20815;DHT22;10568;48.176;16.316;2023-04-15T14:17:17;11.50;99.90
20815;DHT22;10568;48.176;16.316;2023-04-15T14:19:43;11.40;99.90
20815;DHT22;10568;48.176;16.316;2023-04-15T14:22:08;11.30;99.90
20815;DHT22;10568;48.176;16.316;2023-04-15T14:24:34;11.40;99.90
20815;DHT22;10568;48.176;16.316;2023-04-15T14:27:00;11.40;99.90
20815;DHT22;10568;48.176;16.316;2023-04-15T14:29:27;11.20;99.90
20815;DHT22;10568;48.176;16.316;2023-04-15T14:31:53;11.10;99.90
20815;DHT22;10568;48.176;16.316;2023-04-15T14:34:18;10.80;99.90
20815;DHT22;10568;48.176;16.316;2023-04-15T14:36:47;10.60;99.90
20815;DHT22;10568;48.176;16.316;2023-04-15T14:39:13;10.60;99.90
20815;DHT22;10568;48.176;16.316;2023-04-15T14:41:38;10.50;99.90
20815;DHT22;10568;48.176;16.316;2023-04-15T14:44:04;10.40;99.90
20815;DHT22;10568;48.176;16.316;2023-04-15T14:46:30;10.30;99.90
20815;DHT22;10568;48.176;16.316;2023-04-15T14:48:56;10.30;99.90
20815;DHT22;10568;48.176;16.316;2023-04-15T14:51:22;10.30;99.90
20815;DHT22;10568;48.176;16.316;2023-04-15T14:53:48;10.30;99.90
20815;DHT22;10568;48.176;16.316;2023-04-15T14:56:14;10.10;99.90
20815;DHT22;10568;48.176;16.316;2023-04-15T14:58:40;9.90;99.90
20815;DHT22;10568;48.176;16.316;2023-04-15T15:01:05;9.90;99.90
20815;DHT22;10568;48.176;16.316;2023-04-15T15:03:31;9.70;99.90
20815;DHT22;10568;48.176;16.316;2023-04-15T15:05:57;9.60;99.90
20815;DHT22;10568;48.176;16.316;2023-04-15T15:08:23;9.70;99.90
20815;DHT22;10568;48.176;16.316;2023-04-15T15:10:49;9.60;99.90
20815;DHT22;10568;48.176;16.316;2023-04-15T15:13:16;9.50;99.90
20815;DHT22;10568;48.176;16.316;2023-04-15T15:15:42;9.50;99.90
20815;DHT22;10568;48.176;16.316;2023-04-15T15:18:07;9.60;99.90
20815;DHT22;10568;48.176;16.316;2023-04-15T15:20:33;9.60;99.90
20815;DHT22;10568;48.176;16.316;2023-04-15T15:23:00;9.50;99.90
20815;DHT22;10568;48.176;16.316;2023-04-15T15:25:26;9.50;99.90
20815;DHT22;10568;48.176;16.316;2023-04-15T15:27:52;9.40;99.90
20815;DHT22;10568;48.176;16.316;2023-04-15T15:30:18;9.20;99.90
20815;DHT22;10568;48.176;16.316;2023-04-15T15:32:44;9.20;99.90
20815;DHT22;10568;48.176;16.316;2023-04-15T15:35:10;9.30;99.90
20815;DHT22;10568;48.176;16.316;2023-04-15T15:37:36;9.20;99.90
20815;DHT22;10568;48.176;16.316;2023-04-15T15:40:05;9.10;99.90
20815;DHT22;10568;48.176;16.316;2023-04-15T15:42:31;9.30;99.90
20815;DHT22;10568;48.176;16.316;2023-04-15T15:44:57;9.50;99.90
20815;DHT22;10568;48.176;16.316;2023-04-15T15:47:23;9.50;99.90
20815;DHT22;10568;48.176;16.316;2023-04-15T15:49:51;9.50;99.90
20815;DHT22;10568;48.176;16.316;2023-04-15T15:52:17;9.50;99.90
20815;DHT22;10568;48.176;16.316;2023-04-15T15:54:43;9.40;99.90